createdAt,value
2023-02-21T00:00:33.549Z,6.45
2023-02-21T00:03:19.510Z,3.97
2023-02-21T00:06:05.114Z,5.85
2023-02-21T00:08:50.826Z,5.10
2023-02-21T00:11:36.367Z,5.88
2023-02-21T00:14:21.680Z,6.75
2023-02-21T00:17:07.308Z,6.25
2023-02-21T00:19:52.736Z,7.18
2023-02-21T00:22:37.972Z,6.10
2023-02-21T00:25:23.987Z,6.43
2023-02-21T00:28:09.413Z,8.55
2023-02-21T00:30:55.008Z,5.95
2023-02-21T00:33:40.682Z,5.90
2023-02-21T00:36:26.102Z,6.15
2023-02-21T00:39:11.697Z,5.63
2023-02-21T00:41:57.306Z,5.40
2023-02-21T00:44:42.749Z,6.35
2023-02-21T00:47:28.414Z,7.50
2023-02-21T00:50:14.349Z,5.25
2023-02-21T00:52:59.649Z,5.38
2023-02-21T00:55:45.366Z,5.10
2023-02-21T00:58:30.925Z,6.70
2023-02-21T01:01:17.128Z,5.72
2023-02-21T01:04:02.719Z,5.95
2023-02-21T01:06:48.401Z,6.97
2023-02-21T01:09:34.731Z,5.30
2023-02-21T01:12:19.788Z,6.75
2023-02-21T01:15:06.198Z,5.88
2023-02-21T01:17:51.833Z,4.40
2023-02-21T01:20:37.430Z,4.95
2023-02-21T01:23:23.529Z,6.38
2023-02-21T01:26:08.733Z,7.40
2023-02-21T01:28:53.964Z,6.15
2023-02-21T01:31:40.126Z,4.53
2023-02-21T01:34:26.048Z,6.90
2023-02-21T01:37:11.535Z,5.50
2023-02-21T01:39:57.382Z,4.95
2023-02-21T01:42:43.837Z,4.78
2023-02-21T01:45:56.827Z,4.93
2023-02-21T01:51:30.731Z,6.00
2023-02-21T01:54:17.206Z,7.10
2023-02-21T01:57:02.767Z,6.20
2023-02-21T01:59:48.586Z,4.57
2023-02-21T02:02:47.494Z,4.82
2023-02-21T02:05:33.446Z,4.72
2023-02-21T02:08:18.989Z,5.47
2023-02-21T02:11:07.172Z,5.95
2023-02-21T02:14:12.605Z,6.28
2023-02-21T02:16:53.458Z,5.10
2023-02-21T02:20:00.587Z,7.93
2023-02-21T02:22:35.876Z,6.78
2023-02-21T02:25:18.460Z,5.13
2023-02-21T02:27:51.816Z,5.10
2023-02-21T02:30:49.225Z,4.63
2023-02-21T02:33:22.432Z,4.78
2023-02-21T02:35:53.422Z,6.63
2023-02-21T02:38:43.303Z,4.70
2023-02-21T02:41:37.540Z,5.63
2023-02-21T02:44:15.831Z,4.38
2023-02-21T02:46:45.528Z,5.22
2023-02-21T02:49:25.161Z,5.78
2023-02-21T02:51:53.039Z,5.38
2023-02-21T02:54:22.470Z,5.85
2023-02-21T02:56:49.829Z,5.90
2023-02-21T02:59:26.248Z,7.32
2023-02-21T03:02:00.070Z,5.75
2023-02-21T03:04:27.851Z,6.18
2023-02-21T03:07:28.984Z,6.13
2023-02-21T03:10:15.666Z,8.07
2023-02-21T03:13:04.076Z,6.78
2023-02-21T03:15:49.665Z,6.80
2023-02-21T03:18:40.639Z,6.00
2023-02-21T03:21:15.526Z,7.97
2023-02-21T03:23:45.318Z,4.88
2023-02-21T03:26:13.453Z,5.38
2023-02-21T03:28:45.876Z,4.95
2023-02-21T03:31:16.403Z,5.97
2023-02-21T03:33:44.863Z,8.60
2023-02-21T03:36:14.325Z,6.03
2023-02-21T03:38:41.140Z,6.90
2023-02-21T03:41:09.961Z,7.45
2023-02-21T03:43:38.870Z,7.18
2023-02-21T03:46:06.222Z,9.48
2023-02-21T03:48:33.177Z,5.20
2023-02-21T03:51:08.378Z,6.70
2023-02-21T03:53:36.965Z,5.45
2023-02-21T03:56:04.826Z,6.85
2023-02-21T03:58:53.851Z,5.53
2023-02-21T04:01:20.611Z,6.15
2023-02-21T04:03:48.001Z,6.50
2023-02-21T04:06:14.798Z,5.78
2023-02-21T04:08:41.544Z,5.78
2023-02-21T04:11:08.427Z,6.88
2023-02-21T04:13:36.736Z,5.70
2023-02-21T04:16:04.259Z,4.90
2023-02-21T04:18:34.907Z,5.05
2023-02-21T04:21:03.198Z,6.97
2023-02-21T04:23:30.034Z,6.25
2023-02-21T04:25:56.859Z,5.40
2023-02-21T04:28:33.204Z,7.95
2023-02-21T04:31:00.094Z,5.90
2023-02-21T04:33:26.954Z,5.90
2023-02-21T04:35:53.748Z,7.30
2023-02-21T04:38:24.815Z,5.20
2023-02-21T04:40:52.138Z,5.85
2023-02-21T04:43:21.084Z,4.85
2023-02-21T04:45:47.896Z,7.45
2023-02-21T04:48:14.664Z,5.95
2023-02-21T04:50:41.372Z,6.90
2023-02-21T04:53:08.172Z,5.28
2023-02-21T04:55:35.216Z,5.55
2023-02-21T04:58:02.012Z,4.75
2023-02-21T05:00:28.944Z,5.68
2023-02-21T05:02:55.659Z,6.60
2023-02-21T05:05:22.438Z,7.30
2023-02-21T05:07:49.305Z,5.95
2023-02-21T05:10:17.178Z,6.18
2023-02-21T05:12:44.323Z,5.90
2023-02-21T05:15:13.131Z,6.90
2023-02-21T05:17:40.458Z,5.97
2023-02-21T05:20:11.693Z,6.80
2023-02-21T05:22:42.592Z,5.80
2023-02-21T05:25:20.706Z,6.77
2023-02-21T05:27:48.503Z,7.93
2023-02-21T05:30:17.907Z,7.55
2023-02-21T05:32:44.801Z,7.38
2023-02-21T05:35:13.148Z,6.13
2023-02-21T05:37:39.863Z,6.05
2023-02-21T05:40:07.519Z,6.82
2023-02-21T05:42:34.231Z,7.47
2023-02-21T05:45:01.512Z,6.28
2023-02-21T05:47:28.352Z,6.00
2023-02-21T05:49:55.262Z,5.55
2023-02-21T05:52:21.927Z,6.65
2023-02-21T05:54:48.560Z,6.47
2023-02-21T05:57:15.276Z,5.15
2023-02-21T05:59:43.595Z,5.95
2023-02-21T06:02:10.653Z,5.43
2023-02-21T06:04:37.442Z,6.55
2023-02-21T06:07:04.132Z,6.30
2023-02-21T06:09:31.068Z,6.03
2023-02-21T06:11:58.196Z,6.90
2023-02-21T06:14:25.937Z,7.30
2023-02-21T06:16:53.013Z,6.28
2023-02-21T06:19:19.879Z,6.70
2023-02-21T06:21:47.201Z,6.90
2023-02-21T06:24:14.227Z,6.32
2023-02-21T06:26:44.945Z,6.38
2023-02-21T06:29:12.197Z,8.87
2023-02-21T06:31:39.217Z,6.32
2023-02-21T06:34:06.303Z,5.20
2023-02-21T06:36:33.146Z,5.35
2023-02-21T06:38:59.831Z,5.90
2023-02-21T06:41:29.311Z,5.80
2023-02-21T06:43:57.727Z,5.10
2023-02-21T06:46:27.514Z,4.25
2023-02-21T06:48:54.278Z,7.78
2023-02-21T06:51:20.995Z,6.20
2023-02-21T06:53:50.476Z,5.88
2023-02-21T06:56:17.239Z,8.32
2023-02-21T06:58:44.101Z,8.63
2023-02-21T07:01:10.966Z,7.28
2023-02-21T07:03:43.144Z,6.15
2023-02-21T07:06:10.374Z,6.05
2023-02-21T07:08:37.180Z,5.93
2023-02-21T07:11:05.888Z,6.35
2023-02-21T07:13:33.619Z,6.68
2023-02-21T07:16:01.288Z,6.80
2023-02-21T07:18:28.078Z,5.78
2023-02-21T07:20:55.093Z,6.13
2023-02-21T07:23:22.074Z,7.63
2023-02-21T07:25:48.951Z,5.38
2023-02-21T07:28:15.716Z,5.28
2023-02-21T07:30:42.467Z,4.78
2023-02-21T07:33:09.216Z,4.68
2023-02-21T07:35:36.004Z,5.25
2023-02-21T07:38:02.668Z,7.05
2023-02-21T07:40:29.742Z,5.50
2023-02-21T07:42:56.443Z,7.10
2023-02-21T07:45:23.171Z,6.70
2023-02-21T07:47:51.706Z,6.35
2023-02-21T07:50:18.658Z,7.05
2023-02-21T07:52:46.257Z,7.03
2023-02-21T07:55:13.529Z,9.35
2023-02-21T07:57:40.495Z,9.52
2023-02-21T08:00:08.062Z,6.38
2023-02-21T08:02:40.428Z,9.80
2023-02-21T08:05:08.712Z,6.65
2023-02-21T08:07:35.566Z,6.32
2023-02-21T08:10:02.377Z,5.07
2023-02-21T08:12:29.049Z,8.65
2023-02-21T08:14:55.715Z,9.13
2023-02-21T08:17:22.407Z,7.57
2023-02-21T08:19:49.278Z,7.55
2023-02-21T08:22:16.022Z,7.35
2023-02-21T08:24:42.708Z,6.90
2023-02-21T08:27:09.414Z,9.05
2023-02-21T08:29:36.423Z,6.43
2023-02-21T08:32:03.801Z,8.10
2023-02-21T08:34:30.507Z,8.13
2023-02-21T08:36:57.364Z,7.22
2023-02-21T08:39:24.122Z,7.57
2023-02-21T08:41:52.455Z,7.60
2023-02-21T08:44:21.714Z,8.80
2023-02-21T08:46:49.911Z,6.97
2023-02-21T08:49:16.876Z,7.45
2023-02-21T08:51:43.588Z,6.85
2023-02-21T08:54:10.330Z,7.32
2023-02-21T08:56:37.093Z,8.15
2023-02-21T08:59:04.549Z,10.15
2023-02-21T09:01:35.414Z,8.73
2023-02-21T09:04:04.119Z,8.57
2023-02-21T09:06:31.320Z,7.43
2023-02-21T09:08:58.138Z,8.45
2023-02-21T09:11:24.784Z,9.70
2023-02-21T09:13:55.272Z,9.65
2023-02-21T09:16:22.602Z,9.40
2023-02-21T09:19:01.307Z,8.68
2023-02-21T09:21:28.803Z,8.20
2023-02-21T09:23:56.964Z,8.48
2023-02-21T09:26:24.307Z,8.57
2023-02-21T09:28:52.365Z,6.30
2023-02-21T09:31:19.647Z,8.90
2023-02-21T09:33:47.068Z,8.43
2023-02-21T09:36:13.951Z,8.70
2023-02-21T09:38:43.810Z,6.85
2023-02-21T09:41:14.776Z,6.22
2023-02-21T09:43:47.262Z,8.43
2023-02-21T09:46:16.796Z,9.27
2023-02-21T09:48:44.809Z,8.52
2023-02-21T09:51:14.209Z,9.88
2023-02-21T09:53:44.551Z,8.75
2023-02-21T09:56:20.089Z,12.25
2023-02-21T09:58:48.130Z,8.65
2023-02-21T10:01:26.399Z,8.20
2023-02-21T10:04:19.224Z,7.35
2023-02-21T10:06:55.773Z,10.55
2023-02-21T10:09:47.743Z,8.98
2023-02-21T10:12:28.020Z,8.85
2023-02-21T10:15:15.015Z,7.43
2023-02-21T10:18:00.569Z,9.20
2023-02-21T10:20:35.563Z,8.43
2023-02-21T10:23:05.873Z,9.25
2023-02-21T10:25:34.941Z,9.85
2023-02-21T10:28:02.206Z,7.88
2023-02-21T10:30:37.939Z,8.90
2023-02-21T10:33:06.728Z,7.18
2023-02-21T10:35:34.760Z,8.07
2023-02-21T10:38:03.708Z,7.55
2023-02-21T10:40:44.126Z,7.72
2023-02-21T10:43:13.773Z,8.07
2023-02-21T10:46:02.905Z,7.35
2023-02-21T10:48:41.371Z,8.13
2023-02-21T10:51:16.764Z,6.18
2023-02-21T10:53:47.924Z,6.40
2023-02-21T10:56:20.527Z,6.43
2023-02-21T10:58:53.221Z,6.88
2023-02-21T11:01:31.880Z,10.13
2023-02-21T11:04:27.241Z,10.13
2023-02-21T11:07:08.803Z,5.53
2023-02-21T11:09:45.226Z,7.25
2023-02-21T11:12:11.896Z,7.40
2023-02-21T11:14:38.681Z,8.10
2023-02-21T11:17:07.527Z,5.40
2023-02-21T11:19:52.078Z,6.63
2023-02-21T11:22:25.710Z,5.70
2023-02-21T11:25:22.300Z,5.95
2023-02-21T11:28:10.497Z,6.63
2023-02-21T11:30:40.389Z,6.43
2023-02-21T11:33:08.998Z,6.32
2023-02-21T11:35:43.050Z,6.15
2023-02-21T11:38:37.339Z,6.93
2023-02-21T11:41:38.204Z,7.22
2023-02-21T11:44:24.477Z,8.02
2023-02-21T11:47:05.027Z,6.47
2023-02-21T11:50:01.592Z,5.60
2023-02-21T11:52:56.681Z,5.30
2023-02-21T11:55:26.501Z,5.72
2023-02-21T11:58:30.337Z,5.85
2023-02-21T12:01:19.297Z,6.10
2023-02-21T12:04:10.577Z,7.03
2023-02-21T12:07:12.048Z,6.00
2023-02-21T12:09:53.004Z,6.13
2023-02-21T12:12:54.096Z,8.15
2023-02-21T12:15:30.405Z,5.78
2023-02-21T12:18:48.020Z,5.50
2023-02-21T12:21:48.436Z,7.15
2023-02-21T12:24:31.047Z,5.38
2023-02-21T12:27:13.023Z,5.43
2023-02-21T12:29:58.656Z,5.30
2023-02-21T12:32:39.814Z,4.80
2023-02-21T12:35:15.691Z,6.30
2023-02-21T12:37:49.618Z,4.30
2023-02-21T12:40:20.373Z,4.15
2023-02-21T12:43:20.462Z,5.32
2023-02-21T12:46:09.777Z,4.63
2023-02-21T12:48:46.016Z,6.18
2023-02-21T12:51:20.006Z,4.22
2023-02-21T12:54:07.104Z,3.97
2023-02-21T12:57:02.605Z,3.72
2023-02-21T12:59:51.997Z,5.65
2023-02-21T13:02:35.037Z,4.05
2023-02-21T13:05:13.684Z,6.45
2023-02-21T13:07:43.364Z,3.60
2023-02-21T13:10:20.120Z,5.47
2023-02-21T13:12:58.918Z,3.60
2023-02-21T13:15:29.492Z,3.25
2023-02-21T13:18:32.305Z,3.13
2023-02-21T13:21:20.781Z,3.47
2023-02-21T13:24:29.931Z,3.00
2023-02-21T13:28:02.080Z,3.38
2023-02-21T13:30:42.462Z,2.72
2023-02-21T13:33:24.748Z,3.15
2023-02-21T13:35:51.882Z,4.80
2023-02-21T13:38:20.545Z,2.70
2023-02-21T13:40:54.412Z,3.80
2023-02-21T13:43:29.648Z,3.58
2023-02-21T13:46:31.502Z,2.95
2023-02-21T13:51:53.050Z,2.55
2023-02-21T13:54:24.766Z,2.88
2023-02-21T13:56:52.172Z,2.08
2023-02-21T13:59:34.467Z,3.28
2023-02-21T14:02:22.378Z,4.05
2023-02-21T14:04:56.748Z,3.30
2023-02-21T14:07:43.126Z,2.20
2023-02-21T14:10:25.593Z,1.55
2023-02-21T14:12:59.831Z,2.15
2023-02-21T14:15:44.929Z,2.22
2023-02-21T14:18:28.021Z,4.32
2023-02-21T14:20:56.891Z,3.05
2023-02-21T14:23:31.918Z,1.48
2023-02-21T14:26:01.640Z,2.75
2023-02-21T14:28:50.787Z,2.45
2023-02-21T14:31:51.249Z,2.83
2023-02-21T14:34:41.493Z,2.78
2023-02-21T14:37:45.194Z,2.13
2023-02-21T14:40:14.760Z,3.88
2023-02-21T14:43:02.103Z,5.65
2023-02-21T14:45:44.220Z,2.85
2023-02-21T14:48:32.817Z,2.28
2023-02-21T14:51:21.362Z,2.47
2023-02-21T14:54:02.008Z,2.33
2023-02-21T14:57:19.145Z,2.17
2023-02-21T14:59:51.737Z,1.63
2023-02-21T15:02:52.760Z,2.25
2023-02-21T15:05:28.978Z,2.80
2023-02-21T15:07:59.183Z,3.10
2023-02-21T15:10:27.771Z,1.15
2023-02-21T15:12:58.585Z,1.30
2023-02-21T15:15:30.115Z,4.00
2023-02-21T15:20:34.732Z,2.63
2023-02-21T15:23:13.169Z,1.65
2023-02-21T15:25:40.401Z,1.25
2023-02-21T15:28:20.490Z,1.65
2023-02-21T15:30:58.298Z,2.03
2023-02-21T15:33:27.808Z,2.10
2023-02-21T15:36:00.849Z,2.10
2023-02-21T15:38:33.079Z,1.63
2023-02-21T15:41:06.155Z,2.75
2023-02-21T15:43:38.699Z,3.92
2023-02-21T15:46:09.052Z,1.45
2023-02-21T15:48:36.453Z,2.28
2023-02-21T15:51:06.787Z,1.77
2023-02-21T15:53:34.217Z,1.83
2023-02-21T15:56:24.914Z,2.60
2023-02-21T15:59:25.285Z,2.25
2023-02-21T16:02:20.416Z,2.35
2023-02-21T16:04:49.049Z,0.68
2023-02-21T16:07:37.240Z,1.80
2023-02-21T16:10:08.387Z,2.03
2023-02-21T16:12:44.757Z,2.00
2023-02-21T16:15:49.588Z,1.77
2023-02-21T16:18:18.525Z,2.20
2023-02-21T16:20:45.475Z,2.15
2023-02-21T16:23:30.926Z,3.33
2023-02-21T16:26:09.831Z,1.65
2023-02-21T16:28:38.997Z,1.83
2023-02-21T16:31:09.635Z,1.95
2023-02-21T16:33:37.065Z,1.80
2023-02-21T16:36:10.584Z,1.65
2023-02-21T16:38:37.249Z,4.65
2023-02-21T16:41:04.103Z,3.90
2023-02-21T16:43:30.797Z,2.00
2023-02-21T16:45:58.658Z,3.45
2023-02-21T16:48:33.108Z,3.05
2023-02-21T16:51:03.671Z,1.73
2023-02-21T16:53:30.988Z,2.17
2023-02-21T16:55:59.823Z,2.45
2023-02-21T16:58:40.712Z,3.38
2023-02-21T17:01:25.701Z,2.13
2023-02-21T17:03:53.979Z,3.05
2023-02-21T17:06:23.755Z,4.15
2023-02-21T17:08:51.157Z,3.97
2023-02-21T17:11:18.235Z,6.10
2023-02-21T17:13:45.378Z,3.50
2023-02-21T17:16:12.408Z,5.32
2023-02-21T17:18:39.335Z,4.00
2023-02-21T17:21:06.198Z,4.82
2023-02-21T17:23:32.932Z,5.05
2023-02-21T17:25:59.774Z,6.57
2023-02-21T17:28:26.491Z,4.72
2023-02-21T17:30:53.425Z,5.30
2023-02-21T17:33:20.173Z,8.40
2023-02-21T17:35:47.264Z,7.70
2023-02-21T17:38:14.334Z,8.30
2023-02-21T17:40:41.090Z,6.90
2023-02-21T17:43:08.912Z,11.98
2023-02-21T17:45:36.430Z,7.95
2023-02-21T17:48:05.592Z,11.02
2023-02-21T17:50:32.339Z,11.13
2023-02-21T17:52:59.106Z,10.20
2023-02-21T17:55:26.766Z,10.52
2023-02-21T17:57:54.375Z,9.98
2023-02-21T18:00:24.804Z,8.18
2023-02-21T18:02:52.765Z,12.07
2023-02-21T18:05:20.352Z,11.05
2023-02-21T18:07:48.962Z,8.48
2023-02-21T18:10:18.214Z,10.98
2023-02-21T18:12:45.250Z,8.15
2023-02-21T18:15:11.967Z,10.73
2023-02-21T18:17:40.798Z,9.60
2023-02-21T18:20:10.423Z,8.35
2023-02-21T18:22:38.394Z,6.55
2023-02-21T18:25:06.211Z,8.70
2023-02-21T18:27:32.937Z,7.05
2023-02-21T18:29:59.779Z,8.13
2023-02-21T18:32:27.140Z,6.25
2023-02-21T18:34:53.963Z,7.82
2023-02-21T18:37:20.664Z,4.78
2023-02-21T18:39:54.331Z,4.55
2023-02-21T18:42:23.741Z,5.43
2023-02-21T18:44:51.587Z,5.28
2023-02-21T18:47:19.442Z,3.70
2023-02-21T18:49:47.860Z,5.28
2023-02-21T18:52:15.687Z,7.97
2023-02-21T18:54:47.206Z,8.60
2023-02-21T18:57:13.991Z,5.68
2023-02-21T18:59:40.786Z,7.18
2023-02-21T19:02:14.896Z,8.45
2023-02-21T19:04:43.278Z,8.52
2023-02-21T19:07:13.351Z,6.00
2023-02-21T19:09:40.215Z,6.47
2023-02-21T19:12:09.738Z,5.88
2023-02-21T19:14:37.384Z,10.18
2023-02-21T19:17:07.460Z,9.43
2023-02-21T19:19:34.855Z,7.57
2023-02-21T19:22:01.561Z,11.10
2023-02-21T19:24:28.292Z,7.65
2023-02-21T19:26:55.047Z,7.28
2023-02-21T19:29:22.219Z,6.45
2023-02-21T19:31:49.439Z,6.60
2023-02-21T19:34:16.412Z,7.43
2023-02-21T19:36:43.168Z,5.65
2023-02-21T19:39:11.572Z,5.22
2023-02-21T19:41:38.431Z,5.35
2023-02-21T19:44:06.043Z,6.38
2023-02-21T19:46:32.937Z,6.53
2023-02-21T19:48:59.847Z,8.95
2023-02-21T19:51:28.720Z,6.22
2023-02-21T19:53:58.797Z,6.30
2023-02-21T19:56:28.405Z,7.50
2023-02-21T19:58:55.338Z,5.32
2023-02-21T20:01:22.914Z,6.32
2023-02-21T20:03:50.717Z,6.65
2023-02-21T20:06:18.360Z,4.90
2023-02-21T20:08:47.910Z,5.55
2023-02-21T20:11:18.736Z,6.70
2023-02-21T20:13:45.465Z,7.72
2023-02-21T20:16:15.395Z,8.00
2023-02-21T20:18:45.274Z,6.85
2023-02-21T20:21:24.227Z,8.80
2023-02-21T20:23:51.721Z,5.53
2023-02-21T20:26:18.736Z,6.25
2023-02-21T20:28:47.704Z,6.88
2023-02-21T20:31:15.470Z,6.35
2023-02-21T20:33:42.752Z,5.80
2023-02-21T20:36:10.082Z,5.22
2023-02-21T20:38:37.648Z,6.13
2023-02-21T20:41:07.822Z,9.05
2023-02-21T20:43:35.491Z,5.75
2023-02-21T20:46:02.215Z,6.60
2023-02-21T20:48:29.115Z,8.75
2023-02-21T20:50:55.831Z,6.03
2023-02-21T20:53:23.748Z,6.45
2023-02-21T20:55:50.819Z,7.55
2023-02-21T20:58:17.559Z,8.68
2023-02-21T21:00:44.472Z,7.82
2023-02-21T21:03:15.202Z,7.57
2023-02-21T21:05:42.901Z,7.00
2023-02-21T21:08:10.790Z,5.38
2023-02-21T21:10:37.819Z,6.00
2023-02-21T21:13:05.338Z,7.40
2023-02-21T21:15:32.242Z,7.25
2023-02-21T21:17:59.056Z,5.63
2023-02-21T21:20:27.099Z,7.22
2023-02-21T21:22:53.853Z,6.57
2023-02-21T21:25:22.695Z,6.53
2023-02-21T21:27:49.729Z,6.20
2023-02-21T21:30:22.479Z,6.35
2023-02-21T21:32:49.756Z,7.78
2023-02-21T21:35:19.725Z,7.95
2023-02-21T21:37:47.367Z,7.50
2023-02-21T21:40:17.764Z,7.03
2023-02-21T21:42:48.788Z,7.70
2023-02-21T21:45:21.666Z,7.10
2023-02-21T21:47:50.963Z,7.18
2023-02-21T21:50:19.679Z,6.85
2023-02-21T21:52:54.567Z,6.43
2023-02-21T21:55:25.460Z,9.23
2023-02-21T21:57:53.409Z,8.27
2023-02-21T22:00:25.608Z,7.68
2023-02-21T22:02:57.136Z,5.78
2023-02-21T22:07:52.320Z,6.15
2023-02-21T22:10:23.939Z,7.13
2023-02-21T22:15:23.969Z,7.57
2023-02-21T22:17:51.433Z,8.77
2023-02-21T22:20:20.888Z,7.30
2023-02-21T22:22:49.990Z,7.55
2023-02-21T22:25:19.067Z,9.32
2023-02-21T22:27:47.295Z,7.82
2023-02-21T22:30:16.545Z,8.25
2023-02-21T22:32:43.789Z,10.38
2023-02-21T22:35:18.470Z,10.10
2023-02-21T22:37:52.384Z,9.07
2023-02-21T22:40:24.185Z,8.20
2023-02-21T22:42:55.780Z,9.35
2023-02-21T22:45:23.643Z,7.50
2023-02-21T22:47:52.009Z,10.07
2023-02-21T22:50:20.474Z,7.82
2023-02-21T22:53:03.703Z,9.38
2023-02-21T22:55:30.988Z,8.27
2023-02-21T22:57:59.225Z,8.50
2023-02-21T23:00:33.216Z,9.00
2023-02-21T23:03:02.175Z,6.85
2023-02-21T23:05:29.075Z,9.40
2023-02-21T23:08:00.017Z,7.38
2023-02-21T23:10:28.333Z,7.80
2023-02-21T23:13:00.226Z,8.05
2023-02-21T23:15:27.733Z,8.27
2023-02-21T23:17:55.181Z,8.52
2023-02-21T23:20:29.745Z,6.85
2023-02-21T23:22:58.102Z,7.75
2023-02-21T23:25:28.044Z,9.23
2023-02-21T23:27:56.919Z,8.68
2023-02-21T23:30:33.219Z,9.90
2023-02-21T23:32:59.944Z,8.10
2023-02-21T23:35:27.832Z,7.85
2023-02-21T23:37:54.536Z,10.60
2023-02-21T23:40:24.814Z,7.70
2023-02-21T23:42:54.545Z,8.20
2023-02-21T23:45:24.409Z,7.20
2023-02-21T23:47:53.808Z,9.23
2023-02-21T23:50:30.506Z,9.57
2023-02-21T23:53:02.383Z,7.38
2023-02-21T23:55:30.054Z,6.70
2023-02-21T23:57:59.886Z,8.52
